Terminal Aerodrome Forecast
Issued by NWS

Home | Current Version | Previous Version | Text Only | Print | Product List | Glossary On
Versions: 1 2 3 4 5 6 7 8 9 10 11 12 13 14 15 16 17 18
000
FTUS42 KFFC 262337
TAFRYY
TAF
KRYY 262337Z 2700/2724 23006KT P6SM SCT050 BKN200
     FM270200 24006KT P6SM VCSH SCT035 BKN050
      TEMPO 2702/2704 6SM -SHRA BR BKN035
     FM270400 30010G16KT 6SM -SHRA BR OVC020
     FM270600 31010KT P6SM -RA OVC008
     FM271100 32011G21KT P6SM BKN020
     FM271500 33014G24KT P6SM SCT025 BKN050
     FM272100 32010G20KT P6SM BKN070=

USA.gov is the U.S. government's official web portal to all federal, state and local government web resources and services.